sensor_id;sensor_type;location;lat;lon;timestamp;pressure;altitude;pressure_sealevel;temperature;humidity
6224;BME280;3145;42.726;23.342;2023-08-21T00:01:27;71453.09;;;-142.70;49.02
6224;BME280;3145;42.726;23.342;2023-08-21T00:03:53;71455.09;;;-142.70;49.36
6224;BME280;3145;42.726;23.342;2023-08-21T00:06:20;71469.19;;;-142.70;49.99
6224;BME280;3145;42.726;23.342;2023-08-21T00:08:47;71473.22;;;-142.70;49.82
6224;BME280;3145;42.726;23.342;2023-08-21T00:11:15;71481.28;;;-142.70;49.97
6224;BME280;3145;42.726;23.342;2023-08-21T00:13:42;71497.41;;;-142.70;50.27
6224;BME280;3145;42.726;23.342;2023-08-21T00:16:10;71509.47;;;-142.70;50.76
6224;BME280;3145;42.726;23.342;2023-08-21T00:18:37;71505.44;;;-142.70;50.96
6224;BME280;3145;42.726;23.342;2023-08-21T00:21:03;71501.44;;;-142.70;50.84
6224;BME280;3145;42.726;23.342;2023-08-21T00:23:30;71505.44;;;-142.70;51.12
6224;BME280;3145;42.726;23.342;2023-08-21T00:25:57;71501.44;;;-142.70;51.28
6224;BME280;3145;42.726;23.342;2023-08-21T00:28:25;71501.44;;;-142.70;51.13
6224;BME280;3145;42.726;23.342;2023-08-21T00:31:00;71499.41;;;-142.70;51.48
6224;BME280;3145;42.726;23.342;2023-08-21T00:33:27;71505.44;;;-142.70;51.44
6224;BME280;3145;42.726;23.342;2023-08-21T00:35:53;71511.50;;;-142.70;51.84
6224;BME280;3145;42.726;23.342;2023-08-21T00:38:20;71521.56;;;-142.70;51.94
6224;BME280;3145;42.726;23.342;2023-08-21T00:40:47;71521.56;;;-142.70;51.80
6224;BME280;3145;42.726;23.342;2023-08-21T00:43:14;71529.63;;;-142.70;51.86
6224;BME280;3145;42.726;23.342;2023-08-21T00:45:44;71533.66;;;-142.70;51.99
6224;BME280;3145;42.726;23.342;2023-08-21T00:48:11;71537.66;;;-142.70;52.20
6224;BME280;3145;42.726;23.342;2023-08-21T00:50:39;71545.72;;;-142.70;52.35
6224;BME280;3145;42.726;23.342;2023-08-21T00:53:06;71551.78;;;-142.70;52.35
6224;BME280;3145;42.726;23.342;2023-08-21T00:55:33;71561.84;;;-142.70;52.88
6224;BME280;3145;42.726;23.342;2023-08-21T00:58:01;71565.88;;;-142.70;52.91
6224;BME280;3145;42.726;23.342;2023-08-21T01:00:29;71573.94;;;-142.70;53.23
6224;BME280;3145;42.726;23.342;2023-08-21T01:02:57;71577.94;;;-142.70;52.87
6224;BME280;3145;42.726;23.342;2023-08-21T01:05:24;71590.03;;;-142.70;53.48
6224;BME280;3145;42.726;23.342;2023-08-21T01:07:55;71602.13;;;-142.70;53.74
6224;BME280;3145;42.726;23.342;2023-08-21T01:10:34;71606.16;;;-142.70;53.95
6224;BME280;3145;42.726;23.342;2023-08-21T01:13:08;71606.16;;;-142.70;54.52
6224;BME280;3145;42.726;23.342;2023-08-21T01:15:36;71610.19;;;-142.70;54.46
6224;BME280;3145;42.726;23.342;2023-08-21T01:18:06;71618.22;;;-142.70;54.82
6224;BME280;3145;42.726;23.342;2023-08-21T01:20:35;71630.31;;;-142.70;54.82
6224;BME280;3145;42.726;23.342;2023-08-21T01:23:04;71648.44;;;-142.70;54.92
6224;BME280;3145;42.726;23.342;2023-08-21T01:25:32;71650.44;;;-142.70;55.57
6224;BME280;3145;42.726;23.342;2023-08-21T01:27:59;71654.47;;;-142.70;55.42
6224;BME280;3145;42.726;23.342;2023-08-21T01:30:28;71654.47;;;-142.70;55.05
6224;BME280;3145;42.726;23.342;2023-08-21T01:33:01;71658.50;;;-142.70;55.14
6224;BME280;3145;42.726;23.342;2023-08-21T01:35:31;71658.50;;;-142.70;55.25
6224;BME280;3145;42.726;23.342;2023-08-21T01:38:00;71672.59;;;-142.70;55.58
6224;BME280;3145;42.726;23.342;2023-08-21T01:40:27;71670.59;;;-142.70;56.04
6224;BME280;3145;42.726;23.342;2023-08-21T01:42:55;71668.59;;;-142.70;56.33
6224;BME280;3145;42.726;23.342;2023-08-21T01:45:22;71668.59;;;-142.70;56.35
6224;BME280;3145;42.726;23.342;2023-08-21T01:47:49;71670.59;;;-142.70;55.88
6224;BME280;3145;42.726;23.342;2023-08-21T01:50:15;71670.59;;;-142.70;55.82
6224;BME280;3145;42.726;23.342;2023-08-21T01:52:42;71666.56;;;-142.70;55.95
6224;BME280;3145;42.726;23.342;2023-08-21T01:55:09;71664.56;;;-142.70;55.75
6224;BME280;3145;42.726;23.342;2023-08-21T01:57:37;71664.56;;;-142.70;55.80
6224;BME280;3145;42.726;23.342;2023-08-21T02:00:06;71662.53;;;-142.70;55.83
6224;BME280;3145;42.726;23.342;2023-08-21T02:02:33;71662.53;;;-142.70;55.75
6224;BME280;3145;42.726;23.342;2023-08-21T02:05:00;71668.59;;;-142.70;55.78
6224;BME280;3145;42.726;23.342;2023-08-21T02:07:27;71670.59;;;-142.70;55.90
6224;BME280;3145;42.726;23.342;2023-08-21T02:09:53;71670.59;;;-142.70;56.00
6224;BME280;3145;42.726;23.342;2023-08-21T02:12:20;71678.66;;;-142.70;55.87
6224;BME280;3145;42.726;23.342;2023-08-21T02:14:47;71674.63;;;-142.70;55.85
6224;BME280;3145;42.726;23.342;2023-08-21T02:17:15;71674.63;;;-142.70;55.90
6224;BME280;3145;42.726;23.342;2023-08-21T02:19:42;71670.59;;;-142.70;55.79
6224;BME280;3145;42.726;23.342;2023-08-21T02:22:08;71672.59;;;-142.70;55.96
6224;BME280;3145;42.726;23.342;2023-08-21T02:24:35;71678.66;;;-142.70;55.96
6224;BME280;3145;42.726;23.342;2023-08-21T02:27:02;71688.72;;;-142.70;56.15
6224;BME280;3145;42.726;23.342;2023-08-21T02:29:28;71686.72;;;-142.70;56.15
6224;BME280;3145;42.726;23.342;2023-08-21T02:31:55;71678.66;;;-142.70;56.25
6224;BME280;3145;42.726;23.342;2023-08-21T02:34:23;71678.66;;;-142.70;56.15
6224;BME280;3145;42.726;23.342;2023-08-21T02:36:50;71690.72;;;-142.70;56.18
6224;BME280;3145;42.726;23.342;2023-08-21T02:39:17;71690.72;;;-142.70;56.46
6224;BME280;3145;42.726;23.342;2023-08-21T02:41:43;71686.72;;;-142.70;56.28
6224;BME280;3145;42.726;23.342;2023-08-21T02:44:10;71696.78;;;-142.70;56.36
6224;BME280;3145;42.726;23.342;2023-08-21T02:46:37;71700.81;;;-142.70;56.81
6224;BME280;3145;42.726;23.342;2023-08-21T02:49:03;71704.84;;;-142.70;56.66
6224;BME280;3145;42.726;23.342;2023-08-21T02:51:31;71706.84;;;-142.70;56.81
6224;BME280;3145;42.726;23.342;2023-08-21T02:53:58;71708.88;;;-142.70;57.02
6224;BME280;3145;42.726;23.342;2023-08-21T02:56:25;71710.88;;;-142.70;57.26
6224;BME280;3145;42.726;23.342;2023-08-21T02:58:51;71714.91;;;-142.70;56.85
6224;BME280;3145;42.726;23.342;2023-08-21T03:01:18;71718.94;;;-142.70;56.98
6224;BME280;3145;42.726;23.342;2023-08-21T03:03:45;71722.97;;;-142.70;57.23
6224;BME280;3145;42.726;23.342;2023-08-21T03:06:11;71731.00;;;-142.70;57.63
6224;BME280;3145;42.726;23.342;2023-08-21T03:08:40;71737.06;;;-142.70;57.91
6224;BME280;3145;42.726;23.342;2023-08-21T03:11:08;71741.09;;;-142.70;58.14
6224;BME280;3145;42.726;23.342;2023-08-21T03:13:35;71753.16;;;-142.70;58.39
6224;BME280;3145;42.726;23.342;2023-08-21T03:16:02;71757.19;;;-142.70;58.87
6224;BME280;3145;42.726;23.342;2023-08-21T03:18:30;71775.31;;;-142.70;58.90
6224;BME280;3145;42.726;23.342;2023-08-21T03:20:57;71775.31;;;-142.70;59.04
6224;BME280;3145;42.726;23.342;2023-08-21T03:23:24;71771.28;;;-142.70;59.12
6224;BME280;3145;42.726;23.342;2023-08-21T03:25:53;71771.28;;;-142.70;59.42
6224;BME280;3145;42.726;23.342;2023-08-21T03:28:20;71771.28;;;-142.70;59.42
6224;BME280;3145;42.726;23.342;2023-08-21T03:30:46;71775.31;;;-142.70;59.30
6224;BME280;3145;42.726;23.342;2023-08-21T03:33:13;71773.31;;;-142.70;59.20
6224;BME280;3145;42.726;23.342;2023-08-21T03:35:40;71771.28;;;-142.70;58.84
6224;BME280;3145;42.726;23.342;2023-08-21T03:38:06;71771.28;;;-142.70;59.03
6224;BME280;3145;42.726;23.342;2023-08-21T03:40:33;71769.28;;;-142.70;59.14
6224;BME280;3145;42.726;23.342;2023-08-21T03:43:01;71773.31;;;-142.70;59.17
6224;BME280;3145;42.726;23.342;2023-08-21T03:45:28;71763.25;;;-142.70;59.41
6224;BME280;3145;42.726;23.342;2023-08-21T03:47:54;71771.28;;;-142.70;59.71
6224;BME280;3145;42.726;23.342;2023-08-21T03:50:21;71781.38;;;-142.70;59.85
6224;BME280;3145;42.726;23.342;2023-08-21T03:52:48;71791.44;;;-142.70;60.14
6224;BME280;3145;42.726;23.342;2023-08-21T03:55:15;71803.53;;;-142.70;60.36
6224;BME280;3145;42.726;23.342;2023-08-21T03:57:41;71799.50;;;-142.70;60.58
6224;BME280;3145;42.726;23.342;2023-08-21T04:00:10;71785.41;;;-142.70;60.33
6224;BME280;3145;42.726;23.342;2023-08-21T04:02:37;71767.28;;;-142.70;60.05
6224;BME280;3145;42.726;23.342;2023-08-21T04:05:04;71743.09;;;-142.70;59.45
6224;BME280;3145;42.726;23.342;2023-08-21T04:07:31;71722.97;;;-142.70;58.87
6224;BME280;3145;42.726;23.342;2023-08-21T04:09:58;71702.81;;;-142.70;58.14
6224;BME280;3145;42.726;23.342;2023-08-21T04:12:24;71680.66;;;-142.70;57.99
6224;BME280;3145;42.726;23.342;2023-08-21T04:14:51;71654.47;;;-142.70;57.29
6224;BME280;3145;42.726;23.342;2023-08-21T04:17:21;71626.28;;;-142.70;56.42
6224;BME280;3145;42.726;23.342;2023-08-21T04:19:48;71610.19;;;-142.70;55.95
6224;BME280;3145;42.726;23.342;2023-08-21T04:22:15;71590.03;;;-142.70;55.30
6224;BME280;3145;42.726;23.342;2023-08-21T04:24:42;71573.94;;;-142.70;54.60
6224;BME280;3145;42.726;23.342;2023-08-21T04:27:09;71547.75;;;-142.70;54.04
6224;BME280;3145;42.726;23.342;2023-08-21T04:29:35;71527.59;;;-142.70;53.21
6224;BME280;3145;42.726;23.342;2023-08-21T04:32:03;71505.44;;;-142.70;52.37
6224;BME280;3145;42.726;23.342;2023-08-21T04:34:32;71477.25;;;-142.70;51.95
6224;BME280;3145;42.726;23.342;2023-08-21T04:36:58;71445.03;;;-142.70;51.11
6224;BME280;3145;42.726;23.342;2023-08-21T04:39:25;71424.91;;;-142.70;49.67
6224;BME280;3145;42.726;23.342;2023-08-21T04:41:52;71400.72;;;-142.70;49.68
6224;BME280;3145;42.726;23.342;2023-08-21T04:44:18;71368.50;;;-142.70;48.78
6224;BME280;3145;42.726;23.342;2023-08-21T04:46:49;71336.28;;;-142.70;48.24
6224;BME280;3145;42.726;23.342;2023-08-21T04:49:16;71312.13;;;-142.70;47.49
6224;BME280;3145;42.726;23.342;2023-08-21T04:51:44;71285.94;;;-142.70;46.77
6224;BME280;3145;42.726;23.342;2023-08-21T04:54:11;71267.81;;;-142.70;46.13
6224;BME280;3145;42.726;23.342;2023-08-21T04:56:37;71249.69;;;-142.70;45.60
6224;BME280;3145;42.726;23.342;2023-08-21T04:59:04;71221.50;;;-142.70;45.43
6224;BME280;3145;42.726;23.342;2023-08-21T05:01:31;71195.31;;;-142.70;44.64
6224;BME280;3145;42.726;23.342;2023-08-21T05:03:57;71175.19;;;-142.70;43.81
6224;BME280;3145;42.726;23.342;2023-08-21T05:06:24;71169.16;;;-142.70;43.41
6224;BME280;3145;42.726;23.342;2023-08-21T05:08:52;71167.13;;;-142.70;43.15
6224;BME280;3145;42.726;23.342;2023-08-21T05:11:19;71138.94;;;-142.70;43.08
6224;BME280;3145;42.726;23.342;2023-08-21T05:13:45;71108.72;;;-142.70;42.85
6224;BME280;3145;42.726;23.342;2023-08-21T05:16:12;71088.59;;;-142.70;42.54
6224;BME280;3145;42.726;23.342;2023-08-21T05:18:39;71070.47;;;-142.70;41.78
6224;BME280;3145;42.726;23.342;2023-08-21T05:21:05;71102.69;;;-142.70;42.07
6224;BME280;3145;42.726;23.342;2023-08-21T05:23:32;71090.63;;;-142.70;42.30
6224;BME280;3145;42.726;23.342;2023-08-21T05:26:00;71062.41;;;-142.70;41.94
6224;BME280;3145;42.726;23.342;2023-08-21T05:28:27;71032.22;;;-142.70;41.51
6224;BME280;3145;42.726;23.342;2023-08-21T05:30:53;71034.22;;;-142.70;41.17
6224;BME280;3145;42.726;23.342;2023-08-21T05:33:20;71010.06;;;-142.70;41.16
6224;BME280;3145;42.726;23.342;2023-08-21T05:35:47;71010.06;;;-142.70;41.11
6224;BME280;3145;42.726;23.342;2023-08-21T05:38:13;71022.16;;;-142.70;40.60
6224;BME280;3145;42.726;23.342;2023-08-21T05:40:40;71006.03;;;-142.70;41.04
6224;BME280;3145;42.726;23.342;2023-08-21T05:43:08;71018.13;;;-142.70;40.62
6224;BME280;3145;42.726;23.342;2023-08-21T05:45:35;71018.13;;;-142.70;41.10
6224;BME280;3145;42.726;23.342;2023-08-21T05:48:02;70965.75;;;-142.70;40.32
6224;BME280;3145;42.726;23.342;2023-08-21T05:50:29;70923.47;;;-142.70;39.99
6224;BME280;3145;42.726;23.342;2023-08-21T05:52:56;70911.41;;;-142.70;39.84
6224;BME280;3145;42.726;23.342;2023-08-21T05:55:24;70917.44;;;-142.70;39.45
6224;BME280;3145;42.726;23.342;2023-08-21T05:57:50;70867.09;;;-142.70;39.00
6224;BME280;3145;42.726;23.342;2023-08-21T06:00:19;70873.16;;;-142.70;38.17
6224;BME280;3145;42.726;23.342;2023-08-21T06:02:45;70899.31;;;-142.70;38.46
6224;BME280;3145;42.726;23.342;2023-08-21T06:05:12;70848.97;;;-142.70;38.77
6224;BME280;3145;42.726;23.342;2023-08-21T06:07:39;70796.63;;;-142.70;37.65
6224;BME280;3145;42.726;23.342;2023-08-21T06:10:07;70772.47;;;-142.70;37.14
6224;BME280;3145;42.726;23.342;2023-08-21T06:12:36;70788.56;;;-142.70;37.47
6224;BME280;3145;42.726;23.342;2023-08-21T06:15:04;70875.16;;;-142.70;38.48
6224;BME280;3145;42.726;23.342;2023-08-21T06:17:33;70861.06;;;-142.70;38.48
6224;BME280;3145;42.726;23.342;2023-08-21T06:19:59;70895.28;;;-142.70;38.28
6224;BME280;3145;42.726;23.342;2023-08-21T06:22:26;70853.00;;;-142.70;38.30
6224;BME280;3145;42.726;23.342;2023-08-21T06:24:53;70786.56;;;-142.70;37.97
6224;BME280;3145;42.726;23.342;2023-08-21T06:27:19;70726.16;;;-142.70;36.97
6224;BME280;3145;42.726;23.342;2023-08-21T06:29:46;70708.03;;;-142.70;36.62
6224;BME280;3145;42.726;23.342;2023-08-21T06:32:13;70679.84;;;-142.70;35.68
6224;BME280;3145;42.726;23.342;2023-08-21T06:34:41;70675.81;;;-142.70;35.51
6224;BME280;3145;42.726;23.342;2023-08-21T06:37:07;70639.59;;;-142.70;35.65
6224;BME280;3145;42.726;23.342;2023-08-21T06:39:34;70627.50;;;-142.70;35.84
6224;BME280;3145;42.726;23.342;2023-08-21T06:42:01;70591.25;;;-142.70;35.05
6224;BME280;3145;42.726;23.342;2023-08-21T06:44:28;70607.38;;;-142.70;34.62
6224;BME280;3145;42.726;23.342;2023-08-21T06:46:54;70605.34;;;-142.70;35.94
6224;BME280;3145;42.726;23.342;2023-08-21T06:49:21;70633.53;;;-142.70;35.03
6224;BME280;3145;42.726;23.342;2023-08-21T06:51:50;70575.16;;;-142.70;34.97
6224;BME280;3145;42.726;23.342;2023-08-21T06:54:16;70518.78;;;-142.70;34.45
6224;BME280;3145;42.726;23.342;2023-08-21T06:56:43;70494.63;;;-142.70;34.41
6224;BME280;3145;42.726;23.342;2023-08-21T06:59:10;70476.50;;;-142.70;34.41
6224;BME280;3145;42.726;23.342;2023-08-21T07:01:37;70416.09;;;-142.70;33.75
6224;BME280;3145;42.726;23.342;2023-08-21T07:04:04;70383.88;;;-142.70;32.56
6224;BME280;3145;42.726;23.342;2023-08-21T07:06:30;70333.56;;;-142.70;32.66
6224;BME280;3145;42.726;23.342;2023-08-21T07:08:59;70307.38;;;-142.70;32.01
6224;BME280;3145;42.726;23.342;2023-08-21T07:11:26;70293.28;;;-142.70;31.53
6224;BME280;3145;42.726;23.342;2023-08-21T07:13:52;70297.31;;;-142.70;32.10
6224;BME280;3145;42.726;23.342;2023-08-21T07:16:19;70287.25;;;-142.70;31.23
6224;BME280;3145;42.726;23.342;2023-08-21T07:18:46;70277.19;;;-142.70;31.25
6224;BME280;3145;42.726;23.342;2023-08-21T07:21:13;70271.16;;;-142.70;31.54
6224;BME280;3145;42.726;23.342;2023-08-21T07:23:39;70238.94;;;-142.70;31.61
6224;BME280;3145;42.726;23.342;2023-08-21T07:26:07;70184.59;;;-142.70;32.14
6224;BME280;3145;42.726;23.342;2023-08-21T07:28:34;70148.34;;;-142.70;31.10
6224;BME280;3145;42.726;23.342;2023-08-21T07:31:01;70154.38;;;-142.70;30.74
6224;BME280;3145;42.726;23.342;2023-08-21T07:33:28;70124.19;;;-142.70;30.58
6224;BME280;3145;42.726;23.342;2023-08-21T07:35:58;70116.13;;;-142.70;30.15
6224;BME280;3145;42.726;23.342;2023-08-21T07:38:25;70118.16;;;-142.70;29.62
6224;BME280;3145;42.726;23.342;2023-08-21T07:41:02;70120.16;;;-142.70;30.55
6224;BME280;3145;42.726;23.342;2023-08-21T07:43:30;70087.97;;;-142.70;30.15
6224;BME280;3145;42.726;23.342;2023-08-21T07:45:57;70063.81;;;-142.70;29.59
6224;BME280;3145;42.726;23.342;2023-08-21T07:48:24;70051.72;;;-142.70;30.11
6224;BME280;3145;42.726;23.342;2023-08-21T07:50:51;70085.94;;;-142.70;29.44
6224;BME280;3145;42.726;23.342;2023-08-21T07:53:18;70049.72;;;-142.70;29.37
6224;BME280;3145;42.726;23.342;2023-08-21T07:55:45;70047.69;;;-142.70;28.95
6224;BME280;3145;42.726;23.342;2023-08-21T07:58:12;70053.72;;;-142.70;29.11
6224;BME280;3145;42.726;23.342;2023-08-21T08:00:41;70065.81;;;-142.70;29.54
6224;BME280;3145;42.726;23.342;2023-08-21T08:03:09;70087.97;;;-142.70;29.52
6224;BME280;3145;42.726;23.342;2023-08-21T08:05:36;70067.81;;;-142.70;30.00
6224;BME280;3145;42.726;23.342;2023-08-21T08:08:03;70015.50;;;-142.70;29.37
6224;BME280;3145;42.726;23.342;2023-08-21T08:10:30;69983.28;;;-142.70;29.17
6224;BME280;3145;42.726;23.342;2023-08-21T08:12:57;70009.44;;;-142.70;28.46
6224;BME280;3145;42.726;23.342;2023-08-21T08:15:24;70029.56;;;-142.70;29.21
6224;BME280;3145;42.726;23.342;2023-08-21T08:17:54;70003.41;;;-142.70;28.28
6224;BME280;3145;42.726;23.342;2023-08-21T08:20:21;69979.25;;;-142.70;28.77
6224;BME280;3145;42.726;23.342;2023-08-21T08:22:47;70037.63;;;-142.70;29.33
6224;BME280;3145;42.726;23.342;2023-08-21T08:25:14;69975.22;;;-142.70;29.14
6224;BME280;3145;42.726;23.342;2023-08-21T08:27:43;69947.03;;;-142.70;29.02
6224;BME280;3145;42.726;23.342;2023-08-21T08:30:10;69922.88;;;-142.70;29.21
6224;BME280;3145;42.726;23.342;2023-08-21T08:32:37;69912.81;;;-142.70;28.45
6224;BME280;3145;42.726;23.342;2023-08-21T08:35:07;69914.84;;;-142.70;28.32
6224;BME280;3145;42.726;23.342;2023-08-21T08:37:34;69900.75;;;-142.70;28.99
6224;BME280;3145;42.726;23.342;2023-08-21T08:40:01;69890.69;;;-142.70;28.94
6224;BME280;3145;42.726;23.342;2023-08-21T08:42:28;69878.59;;;-142.70;28.67
6224;BME280;3145;42.726;23.342;2023-08-21T08:44:57;69842.38;;;-142.70;28.21
6224;BME280;3145;42.726;23.342;2023-08-21T08:47:29;69814.19;;;-142.70;28.15
6224;BME280;3145;42.726;23.342;2023-08-21T08:49:58;69794.06;;;-142.70;28.21
6224;BME280;3145;42.726;23.342;2023-08-21T08:52:27;69779.97;;;-142.70;27.10
6224;BME280;3145;42.726;23.342;2023-08-21T08:54:55;69759.84;;;-142.70;28.06
6224;BME280;3145;42.726;23.342;2023-08-21T08:57:24;69751.78;;;-142.70;26.82
6224;BME280;3145;42.726;23.342;2023-08-21T08:59:51;69822.25;;;-142.70;26.89
6224;BME280;3145;42.726;23.342;2023-08-21T09:02:18;69880.63;;;-142.70;26.90
6224;BME280;3145;42.726;23.342;2023-08-21T09:04:44;69896.72;;;-142.70;27.06
6224;BME280;3145;42.726;23.342;2023-08-21T09:07:12;69902.75;;;-142.70;27.11
6224;BME280;3145;42.726;23.342;2023-08-21T09:09:41;69945.03;;;-142.70;28.35
6224;BME280;3145;42.726;23.342;2023-08-21T09:12:12;69973.22;;;-142.70;27.98
6224;BME280;3145;42.726;23.342;2023-08-21T09:14:39;70021.53;;;-142.70;28.75
6224;BME280;3145;42.726;23.342;2023-08-21T09:17:06;70061.78;;;-142.70;28.81
6224;BME280;3145;42.726;23.342;2023-08-21T09:19:34;70035.63;;;-142.70;28.29
6224;BME280;3145;42.726;23.342;2023-08-21T09:22:08;70136.28;;;-142.70;29.30
6224;BME280;3145;42.726;23.342;2023-08-21T09:24:35;70122.19;;;-142.70;28.66
6224;BME280;3145;42.726;23.342;2023-08-21T09:27:03;70091.97;;;-142.70;28.44
6224;BME280;3145;42.726;23.342;2023-08-21T09:29:38;70102.03;;;-142.70;28.53
6224;BME280;3145;42.726;23.342;2023-08-21T09:32:05;70148.34;;;-142.70;28.93
6224;BME280;3145;42.726;23.342;2023-08-21T09:34:36;70156.41;;;-142.70;29.41
6224;BME280;3145;42.726;23.342;2023-08-21T09:37:07;70116.13;;;-142.70;29.28
6224;BME280;3145;42.726;23.342;2023-08-21T09:39:34;70138.28;;;-142.70;29.21
6224;BME280;3145;42.726;23.342;2023-08-21T09:42:05;70126.22;;;-142.70;28.95
6224;BME280;3145;42.726;23.342;2023-08-21T09:44:35;70104.06;;;-142.70;29.06
6224;BME280;3145;42.726;23.342;2023-08-21T09:47:02;70122.19;;;-142.70;28.69
6224;BME280;3145;42.726;23.342;2023-08-21T09:49:29;70051.72;;;-142.70;28.41
6224;BME280;3145;42.726;23.342;2023-08-21T09:51:57;69995.34;;;-142.70;28.13
6224;BME280;3145;42.726;23.342;2023-08-21T09:54:24;69939.00;;;-142.70;28.67
6224;BME280;3145;42.726;23.342;2023-08-21T09:56:51;69904.78;;;-142.70;27.77
6224;BME280;3145;42.726;23.342;2023-08-21T09:59:19;69955.09;;;-142.70;27.71
6224;BME280;3145;42.726;23.342;2023-08-21T10:01:49;69967.19;;;-142.70;28.02
6224;BME280;3145;42.726;23.342;2023-08-21T10:04:17;69926.91;;;-142.70;27.96
6224;BME280;3145;42.726;23.342;2023-08-21T10:06:46;69882.63;;;-142.70;27.08
6224;BME280;3145;42.726;23.342;2023-08-21T10:09:14;69874.56;;;-142.70;27.40
6224;BME280;3145;42.726;23.342;2023-08-21T10:11:42;69941.00;;;-142.70;27.56
6224;BME280;3145;42.726;23.342;2023-08-21T10:14:09;69987.31;;;-142.70;27.58
6224;BME280;3145;42.726;23.342;2023-08-21T10:16:38;69959.13;;;-142.70;27.30
6224;BME280;3145;42.726;23.342;2023-08-21T10:19:05;69995.34;;;-142.70;27.63
6224;BME280;3145;42.726;23.342;2023-08-21T10:21:35;70035.63;;;-142.70;27.98
6224;BME280;3145;42.726;23.342;2023-08-21T10:24:03;70039.66;;;-142.70;28.47
6224;BME280;3145;42.726;23.342;2023-08-21T10:26:29;69993.34;;;-142.70;27.78
6224;BME280;3145;42.726;23.342;2023-08-21T10:28:59;69930.94;;;-142.70;27.21
6224;BME280;3145;42.726;23.342;2023-08-21T10:31:30;69886.66;;;-142.70;26.62
6224;BME280;3145;42.726;23.342;2023-08-21T10:33:59;69920.88;;;-142.70;26.92
6224;BME280;3145;42.726;23.342;2023-08-21T10:36:40;69882.63;;;-142.70;27.55
6224;BME280;3145;42.726;23.342;2023-08-21T10:39:27;69858.47;;;-142.70;26.69
6224;BME280;3145;42.726;23.342;2023-08-21T10:41:57;69826.28;;;-142.70;26.29
6224;BME280;3145;42.726;23.342;2023-08-21T10:44:38;69872.56;;;-142.70;26.26
6224;BME280;3145;42.726;23.342;2023-08-21T10:47:15;69916.84;;;-142.70;25.64
6224;BME280;3145;42.726;23.342;2023-08-21T10:49:45;69914.84;;;-142.70;26.08
6224;BME280;3145;42.726;23.342;2023-08-21T10:52:12;69965.16;;;-142.70;25.81
6224;BME280;3145;42.726;23.342;2023-08-21T10:54:45;69939.00;;;-142.70;26.67
6224;BME280;3145;42.726;23.342;2023-08-21T10:57:12;69955.09;;;-142.70;25.73
6224;BME280;3145;42.726;23.342;2023-08-21T10:59:49;69975.22;;;-142.70;25.92
6224;BME280;3145;42.726;23.342;2023-08-21T11:02:16;69979.25;;;-142.70;26.10
6224;BME280;3145;42.726;23.342;2023-08-21T11:04:44;69971.19;;;-142.70;25.74
6224;BME280;3145;42.726;23.342;2023-08-21T11:07:11;69957.09;;;-142.70;26.21
6224;BME280;3145;42.726;23.342;2023-08-21T11:09:38;69914.84;;;-142.70;25.93
6224;BME280;3145;42.726;23.342;2023-08-21T11:12:07;69979.25;;;-142.70;25.89
6224;BME280;3145;42.726;23.342;2023-08-21T11:14:34;70037.63;;;-142.70;26.52
6224;BME280;3145;42.726;23.342;2023-08-21T11:17:01;70031.59;;;-142.70;26.29
6224;BME280;3145;42.726;23.342;2023-08-21T11:19:30;70027.56;;;-142.70;26.37
6224;BME280;3145;42.726;23.342;2023-08-21T11:21:58;69995.34;;;-142.70;26.29
6224;BME280;3145;42.726;23.342;2023-08-21T11:24:40;69943.03;;;-142.70;25.86
6224;BME280;3145;42.726;23.342;2023-08-21T11:27:08;69932.94;;;-142.70;26.30
6224;BME280;3145;42.726;23.342;2023-08-21T11:29:39;69959.13;;;-142.70;25.58
6224;BME280;3145;42.726;23.342;2023-08-21T11:32:10;69969.19;;;-142.70;25.54
6224;BME280;3145;42.726;23.342;2023-08-21T11:34:38;69930.94;;;-142.70;25.93
6224;BME280;3145;42.726;23.342;2023-08-21T11:37:06;69987.31;;;-142.70;26.47
6224;BME280;3145;42.726;23.342;2023-08-21T11:39:41;69995.34;;;-142.70;25.99
6224;BME280;3145;42.726;23.342;2023-08-21T11:42:09;69993.34;;;-142.70;26.29
6224;BME280;3145;42.726;23.342;2023-08-21T11:44:43;69979.25;;;-142.70;25.42
6224;BME280;3145;42.726;23.342;2023-08-21T11:47:11;69957.09;;;-142.70;25.97
6224;BME280;3145;42.726;23.342;2023-08-21T11:49:39;69987.31;;;-142.70;25.34
6224;BME280;3145;42.726;23.342;2023-08-21T11:52:08;69951.06;;;-142.70;25.21
6224;BME280;3145;42.726;23.342;2023-08-21T11:54:36;69943.03;;;-142.70;25.50
6224;BME280;3145;42.726;23.342;2023-08-21T11:57:06;69949.06;;;-142.70;25.68
6224;BME280;3145;42.726;23.342;2023-08-21T11:59:33;69971.19;;;-142.70;25.64
6224;BME280;3145;42.726;23.342;2023-08-21T12:02:00;69936.97;;;-142.70;25.31
6224;BME280;3145;42.726;23.342;2023-08-21T12:04:27;69951.06;;;-142.70;25.76
6224;BME280;3145;42.726;23.342;2023-08-21T12:06:54;69914.84;;;-142.70;25.55
6224;BME280;3145;42.726;23.342;2023-08-21T12:09:22;69898.72;;;-142.70;24.92
6224;BME280;3145;42.726;23.342;2023-08-21T12:11:48;69910.81;;;-142.70;24.26
6224;BME280;3145;42.726;23.342;2023-08-21T12:14:15;69906.78;;;-142.70;24.20
6224;BME280;3145;42.726;23.342;2023-08-21T12:16:42;69902.75;;;-142.70;24.86
6224;BME280;3145;42.726;23.342;2023-08-21T12:19:09;69854.44;;;-142.70;25.92
6224;BME280;3145;42.726;23.342;2023-08-21T12:21:37;69842.38;;;-142.70;25.59
6224;BME280;3145;42.726;23.342;2023-08-21T12:24:04;69882.63;;;-142.70;25.24
6224;BME280;3145;42.726;23.342;2023-08-21T12:26:33;69896.72;;;-142.70;25.00
6224;BME280;3145;42.726;23.342;2023-08-21T12:29:00;69884.66;;;-142.70;25.28
6224;BME280;3145;42.726;23.342;2023-08-21T12:31:27;69886.66;;;-142.70;25.19
6224;BME280;3145;42.726;23.342;2023-08-21T12:33:54;69858.47;;;-142.70;25.10
6224;BME280;3145;42.726;23.342;2023-08-21T12:36:21;69850.41;;;-142.70;25.63
6224;BME280;3145;42.726;23.342;2023-08-21T12:38:47;69852.44;;;-142.70;25.74
6224;BME280;3145;42.726;23.342;2023-08-21T12:41:14;69840.34;;;-142.70;24.99
6224;BME280;3145;42.726;23.342;2023-08-21T12:43:42;69846.41;;;-142.70;25.06
6224;BME280;3145;42.726;23.342;2023-08-21T12:46:09;69888.66;;;-142.70;25.21
6224;BME280;3145;42.726;23.342;2023-08-21T12:48:36;69947.03;;;-142.70;26.04
6224;BME280;3145;42.726;23.342;2023-08-21T12:51:02;69934.97;;;-142.70;25.99
6224;BME280;3145;42.726;23.342;2023-08-21T12:53:30;69914.84;;;-142.70;25.53